sensor_id;sensor_type;location;lat;lon;timestamp;P1;durP1;ratioP1;P2;durP2;ratioP2
68951;SDS011;56000;51.146;17.112;2023-04-23T00:02:11;26.50;;;13.20;;
68951;SDS011;56000;51.146;17.112;2023-04-23T00:04:49;21.10;;;12.10;;
68951;SDS011;56000;51.146;17.112;2023-04-23T00:07:23;24.20;;;12.90;;
68951;SDS011;56000;51.146;17.112;2023-04-23T00:09:57;22.20;;;12.20;;
68951;SDS011;56000;51.146;17.112;2023-04-23T00:12:33;26.60;;;12.20;;
68951;SDS011;56000;51.146;17.112;2023-04-23T00:15:10;19.60;;;12.50;;
68951;SDS011;56000;51.146;17.112;2023-04-23T00:17:44;25.00;;;12.40;;
68951;SDS011;56000;51.146;17.112;2023-04-23T00:20:17;20.40;;;11.70;;
68951;SDS011;56000;51.146;17.112;2023-04-23T00:22:50;20.00;;;11.70;;
68951;SDS011;56000;51.146;17.112;2023-04-23T00:25:23;23.60;;;12.10;;
68951;SDS011;56000;51.146;17.112;2023-04-23T00:27:56;23.80;;;11.70;;
68951;SDS011;56000;51.146;17.112;2023-04-23T00:30:29;20.50;;;11.40;;
68951;SDS011;56000;51.146;17.112;2023-04-23T00:33:03;19.70;;;10.70;;
68951;SDS011;56000;51.146;17.112;2023-04-23T00:35:36;17.80;;;11.00;;
68951;SDS011;56000;51.146;17.112;2023-04-23T00:38:09;18.70;;;10.40;;
68951;SDS011;56000;51.146;17.112;2023-04-23T00:40:43;23.00;;;11.80;;
68951;SDS011;56000;51.146;17.112;2023-04-23T00:43:16;23.20;;;11.90;;
68951;SDS011;56000;51.146;17.112;2023-04-23T00:45:50;21.10;;;10.50;;
68951;SDS011;56000;51.146;17.112;2023-04-23T00:48:23;26.60;;;11.60;;
68951;SDS011;56000;51.146;17.112;2023-04-23T00:51:02;21.00;;;11.80;;
68951;SDS011;56000;51.146;17.112;2023-04-23T00:53:36;20.40;;;11.30;;
68951;SDS011;56000;51.146;17.112;2023-04-23T00:56:09;22.30;;;12.00;;
68951;SDS011;56000;51.146;17.112;2023-04-23T00:58:42;26.90;;;11.50;;
68951;SDS011;56000;51.146;17.112;2023-04-23T01:01:16;25.50;;;12.20;;
68951;SDS011;56000;51.146;17.112;2023-04-23T01:03:50;24.60;;;11.90;;
68951;SDS011;56000;51.146;17.112;2023-04-23T01:06:25;22.30;;;12.70;;
68951;SDS011;56000;51.146;17.112;2023-04-23T01:09:00;22.80;;;12.50;;
68951;SDS011;56000;51.146;17.112;2023-04-23T01:11:35;25.70;;;12.80;;
68951;SDS011;56000;51.146;17.112;2023-04-23T01:14:10;24.70;;;12.90;;
68951;SDS011;56000;51.146;17.112;2023-04-23T01:16:43;28.70;;;13.20;;
68951;SDS011;56000;51.146;17.112;2023-04-23T01:19:16;22.00;;;12.40;;
68951;SDS011;56000;51.146;17.112;2023-04-23T01:21:51;21.30;;;12.80;;
68951;SDS011;56000;51.146;17.112;2023-04-23T01:24:29;20.60;;;12.90;;
68951;SDS011;56000;51.146;17.112;2023-04-23T01:27:02;22.80;;;12.30;;
68951;SDS011;56000;51.146;17.112;2023-04-23T01:29:36;21.20;;;12.10;;
68951;SDS011;56000;51.146;17.112;2023-04-23T01:32:09;23.90;;;12.70;;
68951;SDS011;56000;51.146;17.112;2023-04-23T01:34:43;22.60;;;12.10;;
68951;SDS011;56000;51.146;17.112;2023-04-23T01:37:18;21.80;;;12.10;;
68951;SDS011;56000;51.146;17.112;2023-04-23T01:39:52;25.70;;;12.50;;
68951;SDS011;56000;51.146;17.112;2023-04-23T01:42:25;26.20;;;13.20;;
68951;SDS011;56000;51.146;17.112;2023-04-23T01:44:58;22.10;;;12.70;;
68951;SDS011;56000;51.146;17.112;2023-04-23T01:47:33;22.80;;;13.40;;
68951;SDS011;56000;51.146;17.112;2023-04-23T01:50:07;21.20;;;12.40;;
68951;SDS011;56000;51.146;17.112;2023-04-23T01:52:41;21.20;;;12.10;;
68951;SDS011;56000;51.146;17.112;2023-04-23T01:55:15;26.10;;;12.60;;
68951;SDS011;56000;51.146;17.112;2023-04-23T01:57:49;23.10;;;11.80;;
68951;SDS011;56000;51.146;17.112;2023-04-23T02:00:22;22.30;;;12.20;;
68951;SDS011;56000;51.146;17.112;2023-04-23T02:02:55;24.50;;;13.70;;
68951;SDS011;56000;51.146;17.112;2023-04-23T02:05:29;23.70;;;12.30;;
68951;SDS011;56000;51.146;17.112;2023-04-23T02:08:04;22.80;;;12.20;;
68951;SDS011;56000;51.146;17.112;2023-04-23T02:10:38;25.00;;;13.30;;
68951;SDS011;56000;51.146;17.112;2023-04-23T02:13:10;19.90;;;11.80;;
68951;SDS011;56000;51.146;17.112;2023-04-23T02:15:44;24.70;;;12.60;;
68951;SDS011;56000;51.146;17.112;2023-04-23T02:18:17;24.70;;;12.30;;
68951;SDS011;56000;51.146;17.112;2023-04-23T02:20:50;21.80;;;12.10;;
68951;SDS011;56000;51.146;17.112;2023-04-23T02:23:23;23.20;;;12.60;;
68951;SDS011;56000;51.146;17.112;2023-04-23T02:25:57;22.70;;;13.00;;
68951;SDS011;56000;51.146;17.112;2023-04-23T02:28:30;20.50;;;12.40;;
68951;SDS011;56000;51.146;17.112;2023-04-23T02:31:03;23.20;;;11.90;;
68951;SDS011;56000;51.146;17.112;2023-04-23T02:33:39;20.50;;;12.00;;
68951;SDS011;56000;51.146;17.112;2023-04-23T02:36:12;20.00;;;12.80;;
68951;SDS011;56000;51.146;17.112;2023-04-23T02:38:45;23.50;;;12.90;;
68951;SDS011;56000;51.146;17.112;2023-04-23T02:41:20;21.30;;;12.00;;
68951;SDS011;56000;51.146;17.112;2023-04-23T02:43:53;24.20;;;12.90;;
68951;SDS011;56000;51.146;17.112;2023-04-23T02:46:26;26.80;;;13.10;;
68951;SDS011;56000;51.146;17.112;2023-04-23T02:49:00;21.20;;;12.40;;
68951;SDS011;56000;51.146;17.112;2023-04-23T02:51:33;22.30;;;12.30;;
68951;SDS011;56000;51.146;17.112;2023-04-23T02:54:07;20.80;;;12.50;;
68951;SDS011;56000;51.146;17.112;2023-04-23T02:56:40;25.40;;;13.80;;
68951;SDS011;56000;51.146;17.112;2023-04-23T03:01:14;26.70;;;13.50;;
68951;SDS011;56000;51.146;17.112;2023-04-23T03:03:47;24.70;;;13.60;;
68951;SDS011;56000;51.146;17.112;2023-04-23T03:06:21;23.80;;;13.70;;
68951;SDS011;56000;51.146;17.112;2023-04-23T03:08:54;25.30;;;13.40;;
68951;SDS011;56000;51.146;17.112;2023-04-23T03:11:46;25.60;;;13.40;;
68951;SDS011;56000;51.146;17.112;2023-04-23T03:14:20;23.50;;;13.20;;
68951;SDS011;56000;51.146;17.112;2023-04-23T03:16:53;24.80;;;12.60;;
68951;SDS011;56000;51.146;17.112;2023-04-23T03:19:26;22.70;;;13.10;;
68951;SDS011;56000;51.146;17.112;2023-04-23T03:21:59;25.80;;;13.00;;
68951;SDS011;56000;51.146;17.112;2023-04-23T03:24:35;23.50;;;12.50;;
68951;SDS011;56000;51.146;17.112;2023-04-23T03:27:08;24.60;;;13.10;;
68951;SDS011;56000;51.146;17.112;2023-04-23T03:29:41;22.70;;;13.60;;
68951;SDS011;56000;51.146;17.112;2023-04-23T03:32:14;24.30;;;13.20;;
68951;SDS011;56000;51.146;17.112;2023-04-23T03:34:47;23.60;;;13.20;;
68951;SDS011;56000;51.146;17.112;2023-04-23T03:37:21;25.10;;;13.80;;
68951;SDS011;56000;51.146;17.112;2023-04-23T03:39:54;21.90;;;12.90;;
68951;SDS011;56000;51.146;17.112;2023-04-23T03:42:28;25.70;;;13.10;;
68951;SDS011;56000;51.146;17.112;2023-04-23T03:45:01;23.20;;;13.70;;
68951;SDS011;56000;51.146;17.112;2023-04-23T03:47:35;21.00;;;12.80;;
68951;SDS011;56000;51.146;17.112;2023-04-23T03:50:10;21.50;;;11.20;;
68951;SDS011;56000;51.146;17.112;2023-04-23T03:52:43;20.60;;;12.00;;
68951;SDS011;56000;51.146;17.112;2023-04-23T03:55:23;23.40;;;13.00;;
68951;SDS011;56000;51.146;17.112;2023-04-23T03:57:57;29.40;;;13.30;;
68951;SDS011;56000;51.146;17.112;2023-04-23T04:00:41;21.30;;;12.60;;
68951;SDS011;56000;51.146;17.112;2023-04-23T04:04:34;21.90;;;12.70;;
68951;SDS011;56000;51.146;17.112;2023-04-23T04:07:08;28.20;;;14.00;;
68951;SDS011;56000;51.146;17.112;2023-04-23T04:09:41;24.50;;;13.10;;
68951;SDS011;56000;51.146;17.112;2023-04-23T04:12:18;24.70;;;13.80;;
68951;SDS011;56000;51.146;17.112;2023-04-23T04:14:51;24.40;;;13.40;;
68951;SDS011;56000;51.146;17.112;2023-04-23T04:17:26;20.90;;;12.50;;
68951;SDS011;56000;51.146;17.112;2023-04-23T04:19:59;24.70;;;12.80;;
68951;SDS011;56000;51.146;17.112;2023-04-23T04:22:33;24.50;;;13.60;;
68951;SDS011;56000;51.146;17.112;2023-04-23T04:25:07;22.10;;;12.40;;
68951;SDS011;56000;51.146;17.112;2023-04-23T04:27:41;20.90;;;12.10;;
68951;SDS011;56000;51.146;17.112;2023-04-23T04:38:43;22.70;;;13.60;;
68951;SDS011;56000;51.146;17.112;2023-04-23T04:41:16;33.80;;;19.00;;
68951;SDS011;56000;51.146;17.112;2023-04-23T04:43:50;31.50;;;18.00;;
68951;SDS011;56000;51.146;17.112;2023-04-23T04:46:24;29.60;;;15.90;;
68951;SDS011;56000;51.146;17.112;2023-04-23T04:49:01;20.90;;;13.10;;
68951;SDS011;56000;51.146;17.112;2023-04-23T04:51:34;23.80;;;13.50;;
68951;SDS011;56000;51.146;17.112;2023-04-23T04:54:09;24.00;;;13.30;;
68951;SDS011;56000;51.146;17.112;2023-04-23T04:56:42;25.90;;;13.30;;
68951;SDS011;56000;51.146;17.112;2023-04-23T04:59:16;20.40;;;11.90;;
68951;SDS011;56000;51.146;17.112;2023-04-23T05:01:49;18.60;;;12.50;;
68951;SDS011;56000;51.146;17.112;2023-04-23T05:04:22;23.70;;;13.70;;
68951;SDS011;56000;51.146;17.112;2023-04-23T05:06:56;20.40;;;11.00;;
68951;SDS011;56000;51.146;17.112;2023-04-23T05:09:29;25.60;;;12.70;;
68951;SDS011;56000;51.146;17.112;2023-04-23T05:12:02;21.60;;;12.10;;
68951;SDS011;56000;51.146;17.112;2023-04-23T05:14:36;24.10;;;12.50;;
68951;SDS011;56000;51.146;17.112;2023-04-23T05:17:10;22.50;;;11.40;;
68951;SDS011;56000;51.146;17.112;2023-04-23T05:19:43;24.60;;;14.20;;
68951;SDS011;56000;51.146;17.112;2023-04-23T05:22:16;34.80;;;20.10;;
68951;SDS011;56000;51.146;17.112;2023-04-23T05:24:49;22.00;;;12.70;;
68951;SDS011;56000;51.146;17.112;2023-04-23T05:27:22;21.30;;;12.40;;
68951;SDS011;56000;51.146;17.112;2023-04-23T05:29:55;18.60;;;12.00;;
68951;SDS011;56000;51.146;17.112;2023-04-23T05:32:29;22.50;;;12.40;;
68951;SDS011;56000;51.146;17.112;2023-04-23T05:35:02;17.70;;;10.40;;
68951;SDS011;56000;51.146;17.112;2023-04-23T05:37:36;20.40;;;11.40;;
68951;SDS011;56000;51.146;17.112;2023-04-23T05:40:10;19.30;;;11.10;;
68951;SDS011;56000;51.146;17.112;2023-04-23T05:42:45;18.70;;;10.70;;
68951;SDS011;56000;51.146;17.112;2023-04-23T05:45:18;20.30;;;11.80;;
68951;SDS011;56000;51.146;17.112;2023-04-23T05:47:51;17.40;;;11.30;;
68951;SDS011;56000;51.146;17.112;2023-04-23T05:50:24;19.70;;;11.30;;
68951;SDS011;56000;51.146;17.112;2023-04-23T05:52:57;18.20;;;10.80;;
68951;SDS011;56000;51.146;17.112;2023-04-23T05:55:31;19.80;;;10.60;;
68951;SDS011;56000;51.146;17.112;2023-04-23T05:58:03;18.40;;;11.40;;
68951;SDS011;56000;51.146;17.112;2023-04-23T06:00:36;17.30;;;10.20;;
68951;SDS011;56000;51.146;17.112;2023-04-23T06:03:10;17.00;;;11.30;;
68951;SDS011;56000;51.146;17.112;2023-04-23T06:05:43;20.60;;;11.40;;
68951;SDS011;56000;51.146;17.112;2023-04-23T06:08:16;23.70;;;11.90;;
68951;SDS011;56000;51.146;17.112;2023-04-23T06:10:53;16.30;;;10.00;;
68951;SDS011;56000;51.146;17.112;2023-04-23T06:13:26;19.10;;;10.20;;
68951;SDS011;56000;51.146;17.112;2023-04-23T06:15:59;17.90;;;10.50;;
68951;SDS011;56000;51.146;17.112;2023-04-23T06:18:32;18.80;;;10.40;;
68951;SDS011;56000;51.146;17.112;2023-04-23T06:21:06;16.90;;;10.00;;
68951;SDS011;56000;51.146;17.112;2023-04-23T06:23:40;18.30;;;11.00;;
68951;SDS011;56000;51.146;17.112;2023-04-23T06:26:13;15.40;;;9.70;;
68951;SDS011;56000;51.146;17.112;2023-04-23T06:28:47;18.00;;;10.90;;
68951;SDS011;56000;51.146;17.112;2023-04-23T06:31:31;16.20;;;9.90;;
68951;SDS011;56000;51.146;17.112;2023-04-23T06:34:05;18.40;;;9.80;;
68951;SDS011;56000;51.146;17.112;2023-04-23T06:36:37;19.00;;;10.10;;
68951;SDS011;56000;51.146;17.112;2023-04-23T06:39:12;16.30;;;9.10;;
68951;SDS011;56000;51.146;17.112;2023-04-23T06:41:45;16.80;;;9.80;;
68951;SDS011;56000;51.146;17.112;2023-04-23T06:44:33;25.30;;;9.80;;
68951;SDS011;56000;51.146;17.112;2023-04-23T06:47:06;14.30;;;8.40;;
68951;SDS011;56000;51.146;17.112;2023-04-23T06:49:40;22.10;;;10.80;;
68951;SDS011;56000;51.146;17.112;2023-04-23T06:52:13;15.80;;;8.90;;
68951;SDS011;56000;51.146;17.112;2023-04-23T06:54:46;22.50;;;8.90;;
68951;SDS011;56000;51.146;17.112;2023-04-23T06:57:20;14.10;;;7.70;;
68951;SDS011;56000;51.146;17.112;2023-04-23T06:59:52;17.90;;;11.10;;
68951;SDS011;56000;51.146;17.112;2023-04-23T07:02:28;13.10;;;8.00;;
68951;SDS011;56000;51.146;17.112;2023-04-23T07:05:01;11.50;;;6.90;;
68951;SDS011;56000;51.146;17.112;2023-04-23T07:07:34;16.70;;;7.30;;
68951;SDS011;56000;51.146;17.112;2023-04-23T07:10:09;22.00;;;7.80;;
68951;SDS011;56000;51.146;17.112;2023-04-23T07:12:46;11.20;;;7.10;;
68951;SDS011;56000;51.146;17.112;2023-04-23T07:15:20;13.80;;;7.20;;
68951;SDS011;56000;51.146;17.112;2023-04-23T07:17:53;17.90;;;7.50;;
68951;SDS011;56000;51.146;17.112;2023-04-23T07:20:26;14.50;;;7.40;;
68951;SDS011;56000;51.146;17.112;2023-04-23T07:22:59;10.80;;;5.90;;
68951;SDS011;56000;51.146;17.112;2023-04-23T07:25:33;13.50;;;6.50;;
68951;SDS011;56000;51.146;17.112;2023-04-23T07:28:06;10.90;;;6.60;;
68951;SDS011;56000;51.146;17.112;2023-04-23T07:30:40;12.60;;;6.80;;
68951;SDS011;56000;51.146;17.112;2023-04-23T07:33:13;12.40;;;6.30;;
68951;SDS011;56000;51.146;17.112;2023-04-23T07:35:46;11.00;;;5.40;;
68951;SDS011;56000;51.146;17.112;2023-04-23T07:38:19;13.80;;;6.70;;
68951;SDS011;56000;51.146;17.112;2023-04-23T07:40:52;10.40;;;5.60;;
68951;SDS011;56000;51.146;17.112;2023-04-23T07:43:24;9.90;;;5.30;;
68951;SDS011;56000;51.146;17.112;2023-04-23T07:45:57;8.90;;;5.50;;
68951;SDS011;56000;51.146;17.112;2023-04-23T07:48:31;11.70;;;6.40;;
68951;SDS011;56000;51.146;17.112;2023-04-23T07:51:04;11.10;;;5.80;;
68951;SDS011;56000;51.146;17.112;2023-04-23T07:53:38;9.20;;;4.70;;
68951;SDS011;56000;51.146;17.112;2023-04-23T07:56:11;7.90;;;4.30;;
68951;SDS011;56000;51.146;17.112;2023-04-23T07:58:44;11.70;;;4.90;;
68951;SDS011;56000;51.146;17.112;2023-04-23T08:01:17;10.90;;;5.00;;
68951;SDS011;56000;51.146;17.112;2023-04-23T08:03:50;7.80;;;4.30;;
68951;SDS011;56000;51.146;17.112;2023-04-23T08:06:28;7.90;;;4.80;;
68951;SDS011;56000;51.146;17.112;2023-04-23T08:09:04;11.40;;;4.10;;
68951;SDS011;56000;51.146;17.112;2023-04-23T08:11:38;8.40;;;4.90;;
68951;SDS011;56000;51.146;17.112;2023-04-23T08:14:11;6.00;;;3.70;;
68951;SDS011;56000;51.146;17.112;2023-04-23T08:16:44;6.90;;;4.20;;
68951;SDS011;56000;51.146;17.112;2023-04-23T08:19:17;8.40;;;3.80;;
68951;SDS011;56000;51.146;17.112;2023-04-23T08:21:50;7.20;;;4.50;;
68951;SDS011;56000;51.146;17.112;2023-04-23T08:24:23;9.20;;;4.30;;
68951;SDS011;56000;51.146;17.112;2023-04-23T08:26:56;9.90;;;4.50;;
68951;SDS011;56000;51.146;17.112;2023-04-23T08:29:30;9.40;;;3.80;;
68951;SDS011;56000;51.146;17.112;2023-04-23T08:32:04;7.40;;;3.60;;
68951;SDS011;56000;51.146;17.112;2023-04-23T08:34:37;6.40;;;4.10;;
68951;SDS011;56000;51.146;17.112;2023-04-23T08:37:10;5.50;;;3.70;;
68951;SDS011;56000;51.146;17.112;2023-04-23T08:39:59;11.20;;;4.00;;
68951;SDS011;56000;51.146;17.112;2023-04-23T08:42:39;13.50;;;3.70;;
68951;SDS011;56000;51.146;17.112;2023-04-23T08:45:15;8.00;;;4.10;;
68951;SDS011;56000;51.146;17.112;2023-04-23T08:47:48;7.60;;;4.20;;
68951;SDS011;56000;51.146;17.112;2023-04-23T08:50:22;9.80;;;4.00;;
68951;SDS011;56000;51.146;17.112;2023-04-23T08:52:57;9.00;;;3.80;;
68951;SDS011;56000;51.146;17.112;2023-04-23T08:55:31;10.00;;;4.20;;
68951;SDS011;56000;51.146;17.112;2023-04-23T08:58:06;8.50;;;3.70;;
68951;SDS011;56000;51.146;17.112;2023-04-23T09:00:39;7.70;;;3.60;;
68951;SDS011;56000;51.146;17.112;2023-04-23T09:03:12;10.80;;;3.90;;
68951;SDS011;56000;51.146;17.112;2023-04-23T09:05:47;10.30;;;3.60;;
68951;SDS011;56000;51.146;17.112;2023-04-23T09:08:22;9.00;;;3.80;;
68951;SDS011;56000;51.146;17.112;2023-04-23T09:10:55;6.10;;;3.30;;
68951;SDS011;56000;51.146;17.112;2023-04-23T09:13:32;8.20;;;3.50;;
68951;SDS011;56000;51.146;17.112;2023-04-23T09:16:06;6.40;;;3.80;;
68951;SDS011;56000;51.146;17.112;2023-04-23T09:18:40;9.20;;;3.90;;
68951;SDS011;56000;51.146;17.112;2023-04-23T09:21:14;9.20;;;3.90;;
68951;SDS011;56000;51.146;17.112;2023-04-23T09:23:47;7.50;;;3.50;;
68951;SDS011;56000;51.146;17.112;2023-04-23T09:26:22;8.20;;;3.70;;
68951;SDS011;56000;51.146;17.112;2023-04-23T09:28:56;5.80;;;3.90;;
68951;SDS011;56000;51.146;17.112;2023-04-23T09:31:29;7.70;;;3.70;;
68951;SDS011;56000;51.146;17.112;2023-04-23T09:34:02;12.20;;;3.90;;
68951;SDS011;56000;51.146;17.112;2023-04-23T09:36:37;8.20;;;3.50;;
68951;SDS011;56000;51.146;17.112;2023-04-23T09:39:13;7.60;;;3.30;;
68951;SDS011;56000;51.146;17.112;2023-04-23T09:41:48;11.60;;;3.50;;
68951;SDS011;56000;51.146;17.112;2023-04-23T09:44:23;13.00;;;3.40;;
68951;SDS011;56000;51.146;17.112;2023-04-23T09:47:00;7.60;;;3.40;;
68951;SDS011;56000;51.146;17.112;2023-04-23T09:49:47;11.90;;;3.50;;
68951;SDS011;56000;51.146;17.112;2023-04-23T09:52:20;9.30;;;3.50;;
68951;SDS011;56000;51.146;17.112;2023-04-23T09:54:53;7.10;;;3.00;;
68951;SDS011;56000;51.146;17.112;2023-04-23T09:57:28;5.10;;;3.20;;
68951;SDS011;56000;51.146;17.112;2023-04-23T10:00:13;5.10;;;2.90;;
68951;SDS011;56000;51.146;17.112;2023-04-23T10:02:50;4.50;;;3.10;;
68951;SDS011;56000;51.146;17.112;2023-04-23T10:05:24;8.10;;;3.10;;
68951;SDS011;56000;51.146;17.112;2023-04-23T10:08:14;6.90;;;2.70;;
68951;SDS011;56000;51.146;17.112;2023-04-23T10:10:48;5.20;;;2.80;;
68951;SDS011;56000;51.146;17.112;2023-04-23T10:13:38;5.20;;;3.10;;
68951;SDS011;56000;51.146;17.112;2023-04-23T10:16:11;4.60;;;2.80;;
68951;SDS011;56000;51.146;17.112;2023-04-23T10:18:54;7.00;;;3.40;;
68951;SDS011;56000;51.146;17.112;2023-04-23T10:21:30;6.40;;;3.30;;
68951;SDS011;56000;51.146;17.112;2023-04-23T10:24:21;5.90;;;3.60;;
68951;SDS011;56000;51.146;17.112;2023-04-23T10:26:58;10.10;;;5.30;;
68951;SDS011;56000;51.146;17.112;2023-04-23T10:29:33;10.00;;;3.20;;
68951;SDS011;56000;51.146;17.112;2023-04-23T10:32:07;7.00;;;3.40;;
68951;SDS011;56000;51.146;17.112;2023-04-23T10:34:40;10.50;;;3.60;;
68951;SDS011;56000;51.146;17.112;2023-04-23T10:37:15;6.30;;;3.40;;
68951;SDS011;56000;51.146;17.112;2023-04-23T10:39:52;9.20;;;3.70;;
68951;SDS011;56000;51.146;17.112;2023-04-23T10:42:30;6.90;;;3.30;;
68951;SDS011;56000;51.146;17.112;2023-04-23T10:45:05;11.00;;;4.30;;
68951;SDS011;56000;51.146;17.112;2023-04-23T10:47:53;7.10;;;3.20;;
68951;SDS011;56000;51.146;17.112;2023-04-23T10:50:27;6.00;;;3.10;;
68951;SDS011;56000;51.146;17.112;2023-04-23T10:53:06;7.70;;;3.40;;
68951;SDS011;56000;51.146;17.112;2023-04-23T10:55:50;6.60;;;3.10;;
68951;SDS011;56000;51.146;17.112;2023-04-23T10:58:52;9.40;;;4.50;;
68951;SDS011;56000;51.146;17.112;2023-04-23T11:01:26;5.90;;;3.20;;
68951;SDS011;56000;51.146;17.112;2023-04-23T11:04:03;8.50;;;3.10;;
68951;SDS011;56000;51.146;17.112;2023-04-23T11:06:53;13.50;;;7.30;;
68951;SDS011;56000;51.146;17.112;2023-04-23T11:09:40;8.60;;;5.10;;
68951;SDS011;56000;51.146;17.112;2023-04-23T11:12:30;11.80;;;4.30;;
68951;SDS011;56000;51.146;17.112;2023-04-23T11:15:12;9.10;;;4.00;;
68951;SDS011;56000;51.146;17.112;2023-04-23T11:18:02;12.60;;;4.50;;
68951;SDS011;56000;51.146;17.112;2023-04-23T11:20:35;7.40;;;3.80;;
68951;SDS011;56000;51.146;17.112;2023-04-23T11:23:09;7.30;;;3.60;;
68951;SDS011;56000;51.146;17.112;2023-04-23T11:26:02;5.30;;;3.70;;
68951;SDS011;56000;51.146;17.112;2023-04-23T11:28:37;6.60;;;3.20;;
68951;SDS011;56000;51.146;17.112;2023-04-23T11:31:13;8.60;;;3.50;;
68951;SDS011;56000;51.146;17.112;2023-04-23T11:33:46;10.60;;;4.10;;
68951;SDS011;56000;51.146;17.112;2023-04-23T11:36:19;6.30;;;3.60;;
68951;SDS011;56000;51.146;17.112;2023-04-23T11:38:57;17.60;;;7.40;;
68951;SDS011;56000;51.146;17.112;2023-04-23T11:41:31;5.90;;;3.00;;
68951;SDS011;56000;51.146;17.112;2023-04-23T11:44:05;5.20;;;3.20;;
68951;SDS011;56000;51.146;17.112;2023-04-23T11:46:38;8.70;;;4.30;;
68951;SDS011;56000;51.146;17.112;2023-04-23T11:49:11;8.80;;;3.50;;
68951;SDS011;56000;51.146;17.112;2023-04-23T11:51:45;8.00;;;3.30;;
68951;SDS011;56000;51.146;17.112;2023-04-23T11:54:23;9.10;;;4.30;;
68951;SDS011;56000;51.146;17.112;2023-04-23T11:56:58;11.50;;;6.10;;
68951;SDS011;56000;51.146;17.112;2023-04-23T11:59:33;6.60;;;3.00;;
68951;SDS011;56000;51.146;17.112;2023-04-23T12:02:06;9.20;;;3.50;;
68951;SDS011;56000;51.146;17.112;2023-04-23T12:04:42;10.30;;;3.30;;
68951;SDS011;56000;51.146;17.112;2023-04-23T12:07:15;8.20;;;3.90;;
68951;SDS011;56000;51.146;17.112;2023-04-23T12:12:35;6.80;;;3.00;;
68951;SDS011;56000;51.146;17.112;2023-04-23T12:15:09;6.00;;;2.70;;
68951;SDS011;56000;51.146;17.112;2023-04-23T12:17:42;5.80;;;2.70;;
68951;SDS011;56000;51.146;17.112;2023-04-23T12:20:21;5.10;;;2.90;;
68951;SDS011;56000;51.146;17.112;2023-04-23T12:22:54;5.40;;;2.70;;
68951;SDS011;56000;51.146;17.112;2023-04-23T12:25:34;8.60;;;2.40;;
68951;SDS011;56000;51.146;17.112;2023-04-23T12:28:10;7.20;;;3.50;;
68951;SDS011;56000;51.146;17.112;2023-04-23T12:30:47;5.90;;;2.80;;
68951;SDS011;56000;51.146;17.112;2023-04-23T12:33:21;8.90;;;3.00;;
68951;SDS011;56000;51.146;17.112;2023-04-23T12:35:54;6.50;;;3.30;;
68951;SDS011;56000;51.146;17.112;2023-04-23T12:38:29;7.40;;;3.10;;
68951;SDS011;56000;51.146;17.112;2023-04-23T12:41:02;5.40;;;3.00;;
68951;SDS011;56000;51.146;17.112;2023-04-23T12:43:35;9.50;;;3.50;;
68951;SDS011;56000;51.146;17.112;2023-04-23T12:46:08;5.20;;;3.10;;
68951;SDS011;56000;51.146;17.112;2023-04-23T12:48:41;8.50;;;3.20;;
68951;SDS011;56000;51.146;17.112;2023-04-23T12:51:14;7.90;;;3.00;;
68951;SDS011;56000;51.146;17.112;2023-04-23T12:53:48;6.80;;;2.70;;
68951;SDS011;56000;51.146;17.112;2023-04-23T12:56:21;6.70;;;2.50;;
68951;SDS011;56000;51.146;17.112;2023-04-23T12:58:54;6.60;;;2.70;;
68951;SDS011;56000;51.146;17.112;2023-04-23T13:01:30;5.70;;;2.70;;
68951;SDS011;56000;51.146;17.112;2023-04-23T13:04:04;11.00;;;3.30;;
68951;SDS011;56000;51.146;17.112;2023-04-23T13:06:37;5.90;;;3.70;;
68951;SDS011;56000;51.146;17.112;2023-04-23T13:09:11;7.40;;;2.90;;
68951;SDS011;56000;51.146;17.112;2023-04-23T13:11:44;6.50;;;2.60;;
68951;SDS011;56000;51.146;17.112;2023-04-23T13:14:18;4.70;;;2.60;;
68951;SDS011;56000;51.146;17.112;2023-04-23T13:16:52;4.30;;;2.20;;
68951;SDS011;56000;51.146;17.112;2023-04-23T13:19:26;5.20;;;2.50;;
68951;SDS011;56000;51.146;17.112;2023-04-23T13:22:01;5.60;;;3.10;;
68951;SDS011;56000;51.146;17.112;2023-04-23T13:24:34;7.80;;;3.10;;
68951;SDS011;56000;51.146;17.112;2023-04-23T13:27:08;4.70;;;3.00;;
68951;SDS011;56000;51.146;17.112;2023-04-23T13:29:41;9.00;;;3.00;;
68951;SDS011;56000;51.146;17.112;2023-04-23T13:32:14;5.50;;;2.90;;
68951;SDS011;56000;51.146;17.112;2023-04-23T13:34:49;4.50;;;2.10;;
68951;SDS011;56000;51.146;17.112;2023-04-23T13:37:22;4.90;;;2.30;;
68951;SDS011;56000;51.146;17.112;2023-04-23T13:39:56;5.50;;;2.20;;
68951;SDS011;56000;51.146;17.112;2023-04-23T13:42:29;6.30;;;2.10;;
68951;SDS011;56000;51.146;17.112;2023-04-23T13:45:03;4.20;;;1.80;;
68951;SDS011;56000;51.146;17.112;2023-04-23T13:47:37;4.20;;;2.20;;
68951;SDS011;56000;51.146;17.112;2023-04-23T13:50:11;5.90;;;2.10;;
68951;SDS011;56000;51.146;17.112;2023-04-23T13:52:44;4.40;;;2.20;;
68951;SDS011;56000;51.146;17.112;2023-04-23T13:55:17;6.40;;;2.30;;
68951;SDS011;56000;51.146;17.112;2023-04-23T13:57:51;4.70;;;1.90;;
68951;SDS011;56000;51.146;17.112;2023-04-23T14:00:27;4.20;;;1.80;;
68951;SDS011;56000;51.146;17.112;2023-04-23T14:03:01;5.30;;;2.00;;
68951;SDS011;56000;51.146;17.112;2023-04-23T14:05:34;3.40;;;1.70;;
68951;SDS011;56000;51.146;17.112;2023-04-23T14:08:08;7.70;;;2.00;;
68951;SDS011;56000;51.146;17.112;2023-04-23T14:10:42;2.60;;;2.00;;
68951;SDS011;56000;51.146;17.112;2023-04-23T14:13:14;3.30;;;1.90;;
68951;SDS011;56000;51.146;17.112;2023-04-23T14:15:48;7.30;;;2.40;;
68951;SDS011;56000;51.146;17.112;2023-04-23T14:18:21;5.40;;;2.30;;
68951;SDS011;56000;51.146;17.112;2023-04-23T14:20:54;3.70;;;2.10;;
68951;SDS011;56000;51.146;17.112;2023-04-23T14:23:48;4.50;;;2.60;;
68951;SDS011;56000;51.146;17.112;2023-04-23T14:26:35;5.20;;;2.60;;
68951;SDS011;56000;51.146;17.112;2023-04-23T14:29:27;6.20;;;2.60;;
68951;SDS011;56000;51.146;17.112;2023-04-23T14:32:05;10.50;;;2.70;;
68951;SDS011;56000;51.146;17.112;2023-04-23T14:34:38;5.10;;;2.70;;
68951;SDS011;56000;51.146;17.112;2023-04-23T14:37:11;5.20;;;2.80;;
68951;SDS011;56000;51.146;17.112;2023-04-23T14:39:46;6.40;;;3.10;;
68951;SDS011;56000;51.146;17.112;2023-04-23T14:42:19;6.10;;;2.80;;
68951;SDS011;56000;51.146;17.112;2023-04-23T14:44:52;7.00;;;3.10;;
68951;SDS011;56000;51.146;17.112;2023-04-23T14:47:28;4.40;;;2.80;;
68951;SDS011;56000;51.146;17.112;2023-04-23T14:50:02;6.30;;;2.40;;
68951;SDS011;56000;51.146;17.112;2023-04-23T14:52:36;8.10;;;3.20;;
68951;SDS011;56000;51.146;17.112;2023-04-23T14:55:10;5.30;;;2.70;;
68951;SDS011;56000;51.146;17.112;2023-04-23T14:57:43;5.00;;;2.80;;
68951;SDS011;56000;51.146;17.112;2023-04-23T15:00:17;4.50;;;2.60;;
68951;SDS011;56000;51.146;17.112;2023-04-23T15:02:51;4.80;;;2.50;;
68951;SDS011;56000;51.146;17.112;2023-04-23T15:05:25;5.30;;;2.70;;
68951;SDS011;56000;51.146;17.112;2023-04-23T15:07:58;9.60;;;3.10;;
68951;SDS011;56000;51.146;17.112;2023-04-23T15:10:31;6.20;;;2.60;;
68951;SDS011;56000;51.146;17.112;2023-04-23T15:13:15;5.50;;;2.80;;
68951;SDS011;56000;51.146;17.112;2023-04-23T15:16:17;4.20;;;2.20;;
68951;SDS011;56000;51.146;17.112;2023-04-23T15:19:17;4.10;;;2.00;;
68951;SDS011;56000;51.146;17.112;2023-04-23T15:21:50;4.20;;;2.10;;